createdAt,value
2023-09-19T00:01:00.875Z,18.28
2023-09-19T00:02:05.978Z,18.36
2023-09-19T00:03:07.918Z,18.40
2023-09-19T00:04:11.043Z,18.46
2023-09-19T00:05:13.414Z,18.50
2023-09-19T00:06:15.629Z,18.54
2023-09-19T00:07:17.556Z,18.54
2023-09-19T00:08:23.442Z,18.56
2023-09-19T00:09:28.414Z,18.59
2023-09-19T00:10:32.260Z,18.63
2023-09-19T00:11:36.103Z,18.61
2023-09-19T00:12:37.751Z,18.45
2023-09-19T00:13:39.561Z,18.29
2023-09-19T00:14:41.463Z,18.20
2023-09-19T00:15:49.801Z,18.25
2023-09-19T00:16:52.341Z,18.39
2023-09-19T00:17:53.947Z,18.49
2023-09-19T00:18:56.251Z,18.55
2023-09-19T00:19:57.869Z,18.64
2023-09-19T00:21:00.121Z,18.72
2023-09-19T00:22:02.445Z,18.76
2023-09-19T00:23:10.578Z,18.73
2023-09-19T00:24:13.091Z,18.69
2023-09-19T00:25:16.777Z,18.64
2023-09-19T00:26:19.787Z,18.68
2023-09-19T00:27:21.383Z,18.68
2023-09-19T00:28:23.018Z,18.73
2023-09-19T00:29:24.727Z,18.86
2023-09-19T00:30:26.308Z,18.94
2023-09-19T00:31:27.971Z,19.07
2023-09-19T00:32:33.259Z,19.11
2023-09-19T00:33:35.661Z,19.11
2023-09-19T00:34:37.280Z,19.11
2023-09-19T00:35:38.904Z,19.09
2023-09-19T00:36:40.741Z,19.08
2023-09-19T00:37:43.410Z,19.10
2023-09-19T00:38:46.814Z,19.06
2023-09-19T00:39:48.388Z,19.11
2023-09-19T00:40:53.822Z,19.13
2023-09-19T00:41:55.893Z,19.13
2023-09-19T00:43:01.381Z,19.18
2023-09-19T00:44:05.091Z,19.18
2023-09-19T00:45:10.301Z,19.22
2023-09-19T00:46:12.021Z,19.30
2023-09-19T00:47:18.608Z,19.37
2023-09-19T00:48:22.206Z,19.35
2023-09-19T00:49:23.950Z,19.32
2023-09-19T00:50:28.081Z,19.34
2023-09-19T00:51:30.975Z,19.34
2023-09-19T00:52:33.425Z,19.30
2023-09-19T00:53:35.533Z,19.18
2023-09-19T00:54:37.385Z,19.04
2023-09-19T00:55:39.081Z,18.96
2023-09-19T00:56:41.875Z,18.77
2023-09-19T00:57:44.896Z,18.61
2023-09-19T00:58:47.542Z,18.42
2023-09-19T00:59:54.999Z,18.24
2023-09-19T01:00:57.113Z,18.16
2023-09-19T01:02:01.455Z,18.09
2023-09-19T01:03:04.104Z,18.03
2023-09-19T01:04:06.775Z,18.03
2023-09-19T01:05:08.642Z,18.13
2023-09-19T01:06:10.289Z,18.28
2023-09-19T01:07:12.356Z,18.39
2023-09-19T01:08:13.937Z,18.54
2023-09-19T01:09:15.512Z,18.60
2023-09-19T01:10:23.299Z,18.62
2023-09-19T01:11:42.330Z,18.62
2023-09-19T01:12:53.129Z,18.62
2023-09-19T01:14:16.412Z,18.58
2023-09-19T01:15:45.838Z,18.63
2023-09-19T01:17:23.389Z,18.72
2023-09-19T01:18:56.824Z,18.77
2023-09-19T01:20:21.917Z,18.81
2023-09-19T01:21:31.936Z,18.83
2023-09-19T01:22:48.302Z,18.88
2023-09-19T01:24:11.639Z,18.88
2023-09-19T01:25:25.285Z,18.89
2023-09-19T01:26:45.008Z,18.89
2023-09-19T01:28:11.676Z,18.95
2023-09-19T01:29:40.419Z,18.97
2023-09-19T01:30:45.129Z,18.91
2023-09-19T01:31:48.483Z,18.82
2023-09-19T01:32:53.726Z,18.69
2023-09-19T01:34:05.293Z,18.57
2023-09-19T01:35:07.376Z,18.51
2023-09-19T01:36:10.294Z,18.52
2023-09-19T01:37:11.954Z,18.55
2023-09-19T01:38:14.887Z,18.60
2023-09-19T01:39:16.808Z,18.65
2023-09-19T01:40:22.006Z,18.72
2023-09-19T01:41:36.795Z,18.79
2023-09-19T01:42:41.114Z,18.84
2023-09-19T01:43:44.781Z,18.87
2023-09-19T01:44:49.331Z,18.88
2023-09-19T01:46:14.705Z,18.88
2023-09-19T01:47:39.230Z,18.77
2023-09-19T01:48:51.640Z,18.72
2023-09-19T01:50:08.048Z,18.74
2023-09-19T01:51:17.998Z,18.73
2023-09-19T01:52:23.144Z,18.71
2023-09-19T01:53:32.199Z,18.74
2023-09-19T01:54:49.418Z,18.77
2023-09-19T01:55:52.845Z,18.76
2023-09-19T01:57:15.635Z,18.81
2023-09-19T01:58:31.061Z,18.80
2023-09-19T01:59:55.472Z,18.80
2023-09-19T02:00:59.688Z,18.79
2023-09-19T02:02:03.410Z,18.79
2023-09-19T02:03:05.588Z,18.81
2023-09-19T02:04:08.641Z,18.78
2023-09-19T02:05:11.029Z,18.77
2023-09-19T02:06:16.949Z,18.78
2023-09-19T02:07:18.693Z,18.81
2023-09-19T02:08:21.697Z,18.91
2023-09-19T02:09:23.258Z,18.96
2023-09-19T02:10:24.973Z,19.02
2023-09-19T02:11:26.598Z,19.05
2023-09-19T02:12:28.695Z,19.04
2023-09-19T02:13:32.018Z,19.01
2023-09-19T02:14:33.893Z,18.98
2023-09-19T02:15:37.064Z,19.03
2023-09-19T02:16:38.719Z,19.12
2023-09-19T02:17:40.918Z,19.12
2023-09-19T02:18:42.552Z,19.13
2023-09-19T02:19:44.152Z,19.10
2023-09-19T02:20:46.937Z,19.04
2023-09-19T02:21:49.854Z,19.00
2023-09-19T02:22:51.611Z,18.95
2023-09-19T02:23:53.323Z,18.94
2023-09-19T02:24:54.939Z,18.95
2023-09-19T02:26:01.579Z,18.95
2023-09-19T02:27:04.880Z,18.95
2023-09-19T02:28:06.762Z,18.96
2023-09-19T02:29:08.509Z,18.96
2023-09-19T02:30:10.559Z,18.96
2023-09-19T02:31:12.546Z,18.93
2023-09-19T02:32:14.291Z,18.87
2023-09-19T02:33:16.188Z,18.75
2023-09-19T02:34:17.932Z,18.72
2023-09-19T02:35:20.894Z,18.71
2023-09-19T02:36:22.617Z,18.71
2023-09-19T02:37:24.267Z,18.73
2023-09-19T02:38:27.089Z,18.76
2023-09-19T02:39:29.832Z,18.80
2023-09-19T02:40:31.427Z,18.82
2023-09-19T02:41:34.130Z,18.84
2023-09-19T02:42:35.726Z,18.85
2023-09-19T02:43:37.698Z,18.81
2023-09-19T02:44:39.390Z,18.80
2023-09-19T02:45:40.945Z,18.61
2023-09-19T02:46:43.450Z,18.50
2023-09-19T02:47:48.731Z,18.52
2023-09-19T02:48:50.436Z,18.54
2023-09-19T02:49:52.033Z,18.55
2023-09-19T02:50:53.704Z,18.54
2023-09-19T02:51:55.781Z,18.51
2023-09-19T02:52:57.416Z,18.52
2023-09-19T02:54:00.849Z,18.50
2023-09-19T02:55:02.662Z,18.56
2023-09-19T02:56:05.278Z,18.62
2023-09-19T02:57:07.836Z,18.62
2023-09-19T02:58:12.071Z,18.60
2023-09-19T02:59:14.027Z,18.59
2023-09-19T03:00:17.246Z,18.60
2023-09-19T03:01:19.762Z,18.63
2023-09-19T03:02:23.009Z,18.62
2023-09-19T03:03:24.662Z,18.55
2023-09-19T03:04:28.044Z,18.40
2023-09-19T03:05:32.877Z,18.32
2023-09-19T03:06:34.433Z,18.29
2023-09-19T03:07:36.144Z,18.29
2023-09-19T03:08:41.072Z,18.33
2023-09-19T03:09:43.661Z,18.36
2023-09-19T03:10:47.831Z,18.28
2023-09-19T03:11:49.480Z,18.12
2023-09-19T03:12:51.662Z,17.86
2023-09-19T03:13:54.086Z,17.63
2023-09-19T03:14:56.608Z,17.46
2023-09-19T03:15:59.445Z,17.43
2023-09-19T03:17:01.155Z,17.44
2023-09-19T03:18:02.925Z,17.39
2023-09-19T03:19:04.652Z,17.47
2023-09-19T03:20:09.654Z,17.56
2023-09-19T03:21:12.330Z,17.42
2023-09-19T03:22:15.995Z,17.26
2023-09-19T03:23:18.500Z,17.04
2023-09-19T03:24:20.856Z,17.03
2023-09-19T03:25:23.989Z,17.06
2023-09-19T03:26:27.509Z,17.20
2023-09-19T03:27:29.198Z,17.21
2023-09-19T03:28:30.869Z,17.29
2023-09-19T03:29:35.227Z,17.37
2023-09-19T03:30:37.245Z,17.46
2023-09-19T03:31:39.276Z,17.56
2023-09-19T03:32:51.383Z,17.63
2023-09-19T03:33:53.424Z,17.71
2023-09-19T03:34:55.561Z,17.70
2023-09-19T03:35:59.477Z,17.70
2023-09-19T03:37:01.112Z,17.71
2023-09-19T03:38:02.749Z,17.74
2023-09-19T03:39:06.273Z,17.77
2023-09-19T03:40:09.280Z,17.80
2023-09-19T03:41:10.880Z,17.83
2023-09-19T03:42:12.827Z,17.90
2023-09-19T03:43:14.447Z,17.98
2023-09-19T03:44:16.364Z,18.00
2023-09-19T03:45:19.434Z,18.02
2023-09-19T03:46:21.132Z,18.03
2023-09-19T03:47:22.932Z,18.01
2023-09-19T03:48:24.716Z,17.88
2023-09-19T03:49:26.383Z,17.75
2023-09-19T03:50:27.917Z,17.67
2023-09-19T03:51:29.549Z,17.67
2023-09-19T03:52:31.182Z,17.70
2023-09-19T03:53:32.848Z,17.67
2023-09-19T03:54:34.461Z,17.66
2023-09-19T03:55:39.994Z,17.68
2023-09-19T03:56:41.905Z,17.66
2023-09-19T03:57:43.506Z,17.45
2023-09-19T03:58:45.844Z,17.09
2023-09-19T03:59:48.411Z,16.84
2023-09-19T04:00:51.529Z,16.78
2023-09-19T04:01:57.175Z,16.73
2023-09-19T04:02:58.899Z,16.66
2023-09-19T04:04:09.055Z,16.63
2023-09-19T04:05:11.998Z,16.59
2023-09-19T04:06:17.335Z,16.57
2023-09-19T04:07:23.813Z,16.57
2023-09-19T04:08:25.597Z,16.65
2023-09-19T04:09:27.233Z,16.63
2023-09-19T04:10:29.609Z,16.57
2023-09-19T04:11:32.229Z,16.40
2023-09-19T04:12:34.015Z,16.36
2023-09-19T04:13:35.953Z,16.28
2023-09-19T04:14:37.588Z,16.30
2023-09-19T04:15:39.196Z,16.18
2023-09-19T04:16:40.897Z,16.28
2023-09-19T04:17:42.605Z,16.29
2023-09-19T04:18:44.382Z,16.24
2023-09-19T04:19:46.925Z,16.35
2023-09-19T04:20:50.649Z,16.44
2023-09-19T04:21:52.219Z,16.53
2023-09-19T04:22:53.941Z,16.63
2023-09-19T04:23:55.598Z,16.76
2023-09-19T04:24:57.836Z,16.81
2023-09-19T04:25:59.888Z,16.90
2023-09-19T04:27:01.494Z,16.93
2023-09-19T04:28:05.559Z,16.95
2023-09-19T04:29:07.712Z,16.98
2023-09-19T04:30:12.949Z,17.04
2023-09-19T04:31:15.785Z,17.04
2023-09-19T04:32:18.762Z,16.93
2023-09-19T04:33:20.500Z,16.90
2023-09-19T04:34:22.130Z,16.93
2023-09-19T04:35:23.799Z,16.96
2023-09-19T04:36:35.110Z,17.01
2023-09-19T04:37:40.044Z,17.08
2023-09-19T04:38:41.886Z,17.16
2023-09-19T04:39:43.654Z,17.24
2023-09-19T04:40:45.253Z,17.31
2023-09-19T04:41:49.164Z,17.36
2023-09-19T04:43:00.896Z,17.36
2023-09-19T04:44:02.547Z,17.33
2023-09-19T04:45:04.658Z,17.33
2023-09-19T04:46:08.102Z,17.39
2023-09-19T04:47:09.846Z,17.43
2023-09-19T04:48:12.037Z,17.56
2023-09-19T04:49:14.035Z,17.59
2023-09-19T04:50:15.962Z,17.66
2023-09-19T04:51:17.615Z,17.68
2023-09-19T04:52:20.246Z,17.70
2023-09-19T04:53:22.622Z,17.69
2023-09-19T04:54:24.218Z,17.71
2023-09-19T04:55:25.858Z,17.72
2023-09-19T04:56:29.629Z,17.77
2023-09-19T04:57:32.586Z,17.78
2023-09-19T04:58:35.118Z,17.76
2023-09-19T04:59:37.464Z,17.75
2023-09-19T05:00:39.018Z,17.77
2023-09-19T05:01:40.710Z,17.83
2023-09-19T05:02:43.485Z,17.85
2023-09-19T05:03:46.381Z,17.83
2023-09-19T05:04:48.448Z,17.86
2023-09-19T05:05:50.087Z,17.88
2023-09-19T05:06:52.018Z,17.86
2023-09-19T05:07:55.421Z,17.87
2023-09-19T05:08:57.349Z,17.76
2023-09-19T05:09:58.875Z,17.76
2023-09-19T05:11:03.509Z,17.77
2023-09-19T05:12:06.050Z,17.79
2023-09-19T05:13:08.937Z,17.75
2023-09-19T05:14:10.517Z,17.75
2023-09-19T05:15:12.459Z,17.78
2023-09-19T05:16:14.732Z,17.82
2023-09-19T05:17:18.279Z,17.84
2023-09-19T05:18:20.023Z,17.83
2023-09-19T05:19:21.622Z,17.84
2023-09-19T05:20:34.581Z,17.86
2023-09-19T05:21:36.149Z,17.94
2023-09-19T05:22:40.875Z,17.97
2023-09-19T05:23:43.426Z,18.04
2023-09-19T05:24:49.177Z,18.04
2023-09-19T05:25:52.365Z,18.03
2023-09-19T05:26:54.060Z,18.00
2023-09-19T05:27:56.048Z,17.92
2023-09-19T05:28:57.952Z,17.80
2023-09-19T05:29:59.522Z,17.42
2023-09-19T05:31:04.210Z,17.13
2023-09-19T05:32:07.924Z,17.07
2023-09-19T05:33:10.103Z,16.97
2023-09-19T05:34:12.272Z,17.09
2023-09-19T05:35:14.358Z,17.18
2023-09-19T05:36:18.073Z,17.25
2023-09-19T05:37:19.965Z,17.36
2023-09-19T05:38:21.979Z,17.51
2023-09-19T05:39:24.025Z,17.49
2023-09-19T05:40:26.642Z,17.47
2023-09-19T05:41:28.324Z,17.54
2023-09-19T05:42:29.857Z,17.56
2023-09-19T05:43:31.655Z,17.46
2023-09-19T05:44:34.592Z,17.36
2023-09-19T05:45:37.726Z,17.37
2023-09-19T05:46:40.031Z,17.46
2023-09-19T05:47:46.878Z,17.48
2023-09-19T05:48:48.905Z,17.57
2023-09-19T05:49:51.922Z,17.69
2023-09-19T05:50:53.563Z,17.76
2023-09-19T05:51:57.367Z,17.80
2023-09-19T05:52:59.300Z,17.89
2023-09-19T05:54:00.879Z,17.82
2023-09-19T05:55:02.502Z,17.52
2023-09-19T05:56:04.191Z,17.40
2023-09-19T05:57:05.840Z,17.35
2023-09-19T05:58:07.612Z,17.33
2023-09-19T05:59:10.014Z,17.35
2023-09-19T06:00:12.517Z,17.39
2023-09-19T06:01:14.428Z,17.43
2023-09-19T06:02:16.462Z,17.46
2023-09-19T06:03:20.163Z,17.53
2023-09-19T06:04:22.631Z,17.57
2023-09-19T06:05:25.790Z,17.39
2023-09-19T06:06:27.568Z,17.30
2023-09-19T06:07:37.392Z,17.23
2023-09-19T06:08:38.989Z,17.20
2023-09-19T06:09:40.574Z,17.25
2023-09-19T06:10:42.167Z,17.30
2023-09-19T06:11:44.227Z,17.35
2023-09-19T06:12:46.300Z,17.41
2023-09-19T06:13:48.680Z,17.50
2023-09-19T06:14:50.470Z,17.63
2023-09-19T06:15:52.669Z,17.73
2023-09-19T06:16:55.471Z,17.82
2023-09-19T06:17:57.927Z,17.99
2023-09-19T06:19:02.616Z,17.98
2023-09-19T06:20:10.983Z,17.96
2023-09-19T06:21:13.299Z,18.00
2023-09-19T06:22:19.919Z,18.09
2023-09-19T06:23:22.365Z,18.24
2023-09-19T06:24:24.016Z,18.37
2023-09-19T06:25:25.709Z,18.31
2023-09-19T06:26:28.252Z,18.42
2023-09-19T06:27:30.409Z,18.63
2023-09-19T06:28:32.148Z,18.85
2023-09-19T06:29:35.153Z,19.01
2023-09-19T06:30:37.230Z,19.18
2023-09-19T06:31:40.588Z,19.28
2023-09-19T06:32:45.692Z,19.37
2023-09-19T06:33:47.321Z,19.55
2023-09-19T06:34:55.564Z,19.57
2023-09-19T06:36:00.443Z,19.65
2023-09-19T06:37:02.268Z,19.71
2023-09-19T06:38:05.190Z,19.80
2023-09-19T06:39:07.544Z,19.84
2023-09-19T06:40:18.551Z,20.04
2023-09-19T06:41:20.585Z,20.30
2023-09-19T06:42:23.901Z,20.45
2023-09-19T06:43:25.649Z,20.54
2023-09-19T06:44:27.238Z,20.72
2023-09-19T06:45:29.068Z,20.87
2023-09-19T06:46:34.168Z,20.99
2023-09-19T06:47:35.840Z,21.06
2023-09-19T06:48:38.131Z,21.13
2023-09-19T06:49:39.726Z,21.30
2023-09-19T06:50:42.417Z,21.40
2023-09-19T06:51:44.991Z,21.29
2023-09-19T06:52:49.174Z,21.31
2023-09-19T06:53:50.895Z,21.16
2023-09-19T06:54:53.651Z,21.02
2023-09-19T06:55:55.538Z,21.06
2023-09-19T06:56:57.254Z,20.91
2023-09-19T06:57:59.874Z,20.83
2023-09-19T06:59:03.463Z,20.91
2023-09-19T07:00:10.581Z,21.18
2023-09-19T07:01:12.178Z,21.32
2023-09-19T07:02:15.005Z,21.42
2023-09-19T07:03:19.963Z,21.45
2023-09-19T07:04:21.795Z,21.42
2023-09-19T07:05:23.524Z,21.41
2023-09-19T07:06:25.440Z,21.43
2023-09-19T07:07:27.150Z,21.48
2023-09-19T07:08:29.382Z,21.55
2023-09-19T07:09:30.974Z,21.63
2023-09-19T07:10:33.552Z,21.68
2023-09-19T07:11:35.881Z,21.67
2023-09-19T07:12:37.657Z,21.73
2023-09-19T07:13:40.676Z,21.78
2023-09-19T07:14:42.390Z,21.84
2023-09-19T07:15:48.535Z,21.91
2023-09-19T07:16:50.565Z,21.99
2023-09-19T07:17:57.419Z,22.04
2023-09-19T07:18:59.512Z,22.03
2023-09-19T07:20:01.292Z,21.89
2023-09-19T07:21:05.808Z,21.94
2023-09-19T07:22:09.058Z,21.99
2023-09-19T07:23:10.678Z,22.07
2023-09-19T07:24:12.290Z,22.14
2023-09-19T07:25:15.197Z,22.05
2023-09-19T07:26:17.482Z,21.99
2023-09-19T07:27:19.494Z,22.12
2023-09-19T07:28:21.187Z,22.25
2023-09-19T07:29:22.888Z,22.39
2023-09-19T07:30:24.544Z,22.50
2023-09-19T07:31:26.528Z,22.50
2023-09-19T07:32:28.347Z,22.25
2023-09-19T07:33:30.111Z,22.34
2023-09-19T07:34:31.651Z,22.44
2023-09-19T07:35:34.076Z,22.56
2023-09-19T07:36:38.339Z,22.61
2023-09-19T07:37:40.074Z,22.67
2023-09-19T07:38:42.174Z,22.60
2023-09-19T07:39:45.961Z,22.48
2023-09-19T07:40:47.974Z,22.58
2023-09-19T07:41:50.837Z,22.71
2023-09-19T07:42:53.328Z,22.87
2023-09-19T07:43:54.985Z,22.87
2023-09-19T07:44:56.566Z,22.82
2023-09-19T07:45:58.611Z,22.91
2023-09-19T07:47:00.256Z,23.06
2023-09-19T07:48:05.364Z,23.14
2023-09-19T07:49:07.272Z,23.27
2023-09-19T07:50:09.047Z,23.27
2023-09-19T07:51:10.676Z,23.09
2023-09-19T07:52:13.322Z,22.98
2023-09-19T07:53:14.951Z,22.93
2023-09-19T07:54:17.661Z,22.93
2023-09-19T07:55:21.173Z,23.13
2023-09-19T07:56:23.826Z,23.23
2023-09-19T07:57:26.076Z,23.28
2023-09-19T07:58:27.751Z,23.25
2023-09-19T07:59:29.425Z,23.32
2023-09-19T08:00:31.357Z,23.47
2023-09-19T08:01:34.212Z,23.68
2023-09-19T08:02:39.413Z,23.83
2023-09-19T08:03:45.082Z,23.96
2023-09-19T08:04:47.087Z,24.09
2023-09-19T08:05:49.704Z,24.21
2023-09-19T08:06:53.119Z,24.21
2023-09-19T08:07:57.667Z,24.30
2023-09-19T08:09:01.878Z,24.17
2023-09-19T08:10:14.536Z,24.04
2023-09-19T08:11:22.281Z,24.09
2023-09-19T08:12:24.036Z,24.23
2023-09-19T08:13:26.905Z,24.26
2023-09-19T08:14:28.454Z,24.05
2023-09-19T08:15:30.047Z,24.01
2023-09-19T08:16:31.760Z,24.11
2023-09-19T08:17:36.683Z,24.18
2023-09-19T08:18:41.561Z,24.27
2023-09-19T08:19:45.943Z,24.37
2023-09-19T08:20:53.518Z,24.45
2023-09-19T08:22:02.447Z,24.54
2023-09-19T08:23:04.916Z,24.63
2023-09-19T08:24:07.131Z,24.63
2023-09-19T08:25:08.764Z,24.62
2023-09-19T08:26:10.366Z,24.60
2023-09-19T08:27:13.571Z,24.49
2023-09-19T08:28:19.953Z,24.53
2023-09-19T08:29:21.741Z,24.56
2023-09-19T08:30:28.571Z,24.56
2023-09-19T08:31:30.862Z,24.51
2023-09-19T08:32:32.659Z,24.49
2023-09-19T08:33:37.058Z,24.42
2023-09-19T08:34:39.950Z,24.43
2023-09-19T08:35:44.040Z,24.47
2023-09-19T08:36:46.546Z,24.45
2023-09-19T08:37:48.284Z,24.44
2023-09-19T08:38:50.700Z,24.38
2023-09-19T08:39:52.351Z,24.33
2023-09-19T08:40:53.989Z,24.38
2023-09-19T08:42:00.272Z,24.36
2023-09-19T08:43:01.978Z,24.39
2023-09-19T08:44:05.424Z,24.38
2023-09-19T08:45:09.521Z,24.43
2023-09-19T08:46:20.256Z,24.51
2023-09-19T08:47:36.623Z,24.52
2023-09-19T08:48:45.487Z,24.53
2023-09-19T08:49:59.426Z,24.52
2023-09-19T08:51:20.147Z,24.47
2023-09-19T08:52:27.491Z,24.51
2023-09-19T08:53:33.104Z,24.55
2023-09-19T08:54:42.031Z,24.61
2023-09-19T08:55:45.392Z,24.62
2023-09-19T08:56:49.010Z,24.68
2023-09-19T08:57:53.540Z,24.68
2023-09-19T08:59:00.582Z,24.64
2023-09-19T09:00:06.592Z,24.68
2023-09-19T09:01:09.970Z,24.74
2023-09-19T09:02:13.590Z,24.84
2023-09-19T09:03:16.206Z,24.93
2023-09-19T09:04:17.916Z,25.01
2023-09-19T09:05:24.256Z,25.04
2023-09-19T09:06:29.223Z,24.88
2023-09-19T09:07:31.147Z,24.78
2023-09-19T09:08:33.160Z,24.62
2023-09-19T09:09:35.316Z,24.65
2023-09-19T09:10:37.510Z,24.82
2023-09-19T09:11:41.070Z,24.92
2023-09-19T09:12:45.070Z,24.85
2023-09-19T09:13:47.263Z,24.67
2023-09-19T09:14:53.498Z,24.59
2023-09-19T09:15:55.683Z,24.80
2023-09-19T09:17:00.078Z,24.90
2023-09-19T09:18:01.840Z,24.93
2023-09-19T09:19:03.524Z,24.60
2023-09-19T09:20:11.057Z,24.12
2023-09-19T09:21:15.765Z,23.80
2023-09-19T09:22:17.822Z,23.73
2023-09-19T09:23:19.762Z,23.71
2023-09-19T09:24:34.771Z,23.74
2023-09-19T09:25:56.288Z,23.77
2023-09-19T09:26:59.196Z,23.83
2023-09-19T09:28:02.696Z,23.91
2023-09-19T09:29:04.665Z,23.91
2023-09-19T09:30:08.333Z,24.01
2023-09-19T09:31:24.028Z,23.95
2023-09-19T09:32:38.825Z,24.02
2023-09-19T09:33:42.887Z,23.89
2023-09-19T09:34:45.255Z,23.90
2023-09-19T09:35:59.167Z,23.80
2023-09-19T09:37:01.050Z,23.77
2023-09-19T09:38:09.410Z,23.68
2023-09-19T09:39:25.798Z,23.69
2023-09-19T09:40:48.383Z,23.90
2023-09-19T09:41:50.052Z,23.99
2023-09-19T09:42:54.333Z,23.93
2023-09-19T09:43:55.963Z,23.91
2023-09-19T09:45:14.007Z,24.01
2023-09-19T09:46:23.596Z,24.17
2023-09-19T09:47:51.297Z,24.34
2023-09-19T09:49:15.598Z,24.25
2023-09-19T09:50:56.718Z,24.24
2023-09-19T09:52:11.987Z,24.46
2023-09-19T09:53:28.655Z,24.66
2023-09-19T09:54:42.848Z,24.79
2023-09-19T09:56:03.208Z,24.89
2023-09-19T09:57:22.638Z,24.93
2023-09-19T09:58:30.075Z,25.05
2023-09-19T09:59:52.252Z,25.16
2023-09-19T10:01:03.935Z,25.00
2023-09-19T10:02:05.794Z,24.68
2023-09-19T10:03:23.059Z,24.68
2023-09-19T10:04:37.587Z,24.81
2023-09-19T10:05:45.832Z,24.91
2023-09-19T10:06:52.559Z,24.93
2023-09-19T10:07:55.787Z,24.88
2023-09-19T10:09:21.809Z,24.90
2023-09-19T10:10:44.068Z,25.08
2023-09-19T10:11:49.179Z,25.23
2023-09-19T10:12:57.306Z,25.41
2023-09-19T10:14:07.761Z,25.49
2023-09-19T10:15:12.259Z,25.60
2023-09-19T10:16:15.664Z,25.68
2023-09-19T10:17:21.515Z,25.74
2023-09-19T10:18:25.132Z,25.61
2023-09-19T10:19:59.233Z,25.48
2023-09-19T10:21:05.166Z,25.37
2023-09-19T10:22:10.070Z,25.38
2023-09-19T10:23:13.663Z,25.28
2023-09-19T10:24:17.330Z,25.08
2023-09-19T10:25:23.781Z,24.99
2023-09-19T10:26:27.168Z,25.05
2023-09-19T10:27:30.870Z,25.12
2023-09-19T10:28:33.546Z,25.17
2023-09-19T10:29:37.388Z,25.12
2023-09-19T10:30:44.782Z,25.07
2023-09-19T10:31:49.196Z,25.03
2023-09-19T10:33:18.011Z,25.14
2023-09-19T10:34:21.696Z,25.20
2023-09-19T10:35:25.135Z,25.27
2023-09-19T10:36:28.854Z,25.39
2023-09-19T10:37:33.635Z,25.47
2023-09-19T10:38:36.874Z,25.65
2023-09-19T10:39:42.084Z,25.78
2023-09-19T10:40:45.332Z,25.94
2023-09-19T10:41:59.852Z,26.01
2023-09-19T10:43:09.238Z,25.89
2023-09-19T10:44:10.990Z,25.80
2023-09-19T10:45:16.670Z,25.82
2023-09-19T10:46:18.855Z,25.88
2023-09-19T10:47:21.693Z,25.85
2023-09-19T10:48:37.609Z,25.85
2023-09-19T10:49:49.773Z,26.04
2023-09-19T10:51:14.358Z,26.17
2023-09-19T10:52:22.145Z,25.93
2023-09-19T10:53:24.400Z,25.76
2023-09-19T10:54:29.394Z,25.71
2023-09-19T10:55:32.760Z,25.65
2023-09-19T10:56:38.699Z,25.52
2023-09-19T10:57:45.836Z,25.47
2023-09-19T10:58:47.652Z,25.51
2023-09-19T11:00:27.115Z,25.63
2023-09-19T11:01:42.902Z,25.70
2023-09-19T11:02:45.074Z,25.68
2023-09-19T11:03:50.763Z,25.80
2023-09-19T11:04:52.551Z,25.96
2023-09-19T11:06:10.679Z,26.06
2023-09-19T11:07:16.067Z,26.13
2023-09-19T11:08:17.833Z,26.07
2023-09-19T11:09:23.607Z,25.99
2023-09-19T11:10:52.490Z,26.00
2023-09-19T11:11:54.956Z,26.00
2023-09-19T11:12:57.506Z,26.05
2023-09-19T11:14:30.721Z,26.02
2023-09-19T11:16:02.037Z,26.09
2023-09-19T11:17:06.738Z,26.09
2023-09-19T11:18:44.019Z,26.10
2023-09-19T11:20:15.758Z,26.25
2023-09-19T11:21:34.861Z,26.30
2023-09-19T11:22:51.956Z,26.26
2023-09-19T11:24:11.770Z,26.19
2023-09-19T11:25:32.131Z,26.21
2023-09-19T11:26:48.573Z,26.22
2023-09-19T11:28:09.904Z,26.16
2023-09-19T11:29:27.516Z,26.06
2023-09-19T11:30:31.527Z,26.01
2023-09-19T11:31:45.431Z,25.98
2023-09-19T11:33:25.263Z,26.02
2023-09-19T11:34:42.894Z,26.08
2023-09-19T11:36:01.071Z,26.16
2023-09-19T11:37:05.494Z,26.23
2023-09-19T11:38:07.945Z,26.32
2023-09-19T11:39:26.441Z,26.44
2023-09-19T11:40:29.440Z,26.53
2023-09-19T11:41:41.497Z,26.56
2023-09-19T11:42:55.278Z,26.54
2023-09-19T11:44:01.576Z,26.44
2023-09-19T11:45:03.315Z,26.41
2023-09-19T11:46:06.279Z,26.46
2023-09-19T11:47:11.169Z,26.53
2023-09-19T11:48:16.980Z,26.57
2023-09-19T11:49:22.555Z,26.73
2023-09-19T11:50:25.209Z,26.84
2023-09-19T11:51:30.396Z,26.88
2023-09-19T11:52:38.181Z,26.93
2023-09-19T11:53:42.888Z,26.94
2023-09-19T11:54:46.712Z,26.97
2023-09-19T11:55:48.907Z,27.13
2023-09-19T11:56:57.970Z,27.19
2023-09-19T11:58:00.353Z,27.25
2023-09-19T11:59:02.063Z,27.26
2023-09-19T12:00:05.890Z,27.31
2023-09-19T12:01:14.086Z,27.40
2023-09-19T12:02:37.065Z,27.42
2023-09-19T12:03:43.079Z,27.44
2023-09-19T12:04:49.287Z,27.35
2023-09-19T12:05:50.995Z,27.21
2023-09-19T12:07:01.582Z,27.24
2023-09-19T12:08:06.042Z,27.32
2023-09-19T12:09:17.343Z,27.43
2023-09-19T12:10:21.751Z,27.42
2023-09-19T12:11:24.411Z,27.37
2023-09-19T12:12:29.138Z,27.37
2023-09-19T12:13:32.787Z,27.41
2023-09-19T12:14:34.939Z,27.35
2023-09-19T12:15:39.852Z,27.37
2023-09-19T12:16:43.286Z,27.40
2023-09-19T12:17:45.866Z,27.44
2023-09-19T12:18:48.280Z,27.46
2023-09-19T12:19:57.209Z,27.46
2023-09-19T12:20:59.396Z,27.55
2023-09-19T12:22:05.767Z,27.59
2023-09-19T12:23:14.771Z,27.66
2023-09-19T12:24:17.510Z,27.72
2023-09-19T12:25:21.240Z,27.78
2023-09-19T12:26:25.358Z,27.83
2023-09-19T12:27:28.186Z,27.79
2023-09-19T12:28:33.475Z,27.86
2023-09-19T12:29:50.204Z,27.75
2023-09-19T12:30:52.489Z,27.82
2023-09-19T12:31:59.216Z,27.92
2023-09-19T12:33:00.970Z,27.94
2023-09-19T12:34:03.281Z,27.96
2023-09-19T12:35:11.734Z,27.88
2023-09-19T12:36:31.925Z,27.99
2023-09-19T12:37:37.307Z,28.14
2023-09-19T12:38:38.997Z,28.19
2023-09-19T12:39:42.294Z,28.22
2023-09-19T12:40:44.799Z,28.26
2023-09-19T12:41:48.637Z,28.31
2023-09-19T12:42:51.194Z,28.38
2023-09-19T12:43:55.568Z,28.42
2023-09-19T12:44:58.457Z,28.54
2023-09-19T12:46:01.114Z,28.59
2023-09-19T12:47:13.030Z,28.69
2023-09-19T12:48:32.811Z,28.67
2023-09-19T12:49:34.680Z,28.58
2023-09-19T12:50:36.385Z,28.44
2023-09-19T12:51:38.122Z,28.46
2023-09-19T12:52:41.757Z,28.49
2023-09-19T12:53:46.357Z,28.48
2023-09-19T12:54:48.640Z,28.47
2023-09-19T12:55:59.876Z,28.44
2023-09-19T12:57:01.500Z,28.45
2023-09-19T12:58:20.349Z,28.44
2023-09-19T12:59:32.074Z,28.37
2023-09-19T13:00:39.321Z,28.29
2023-09-19T13:01:49.470Z,28.27
2023-09-19T13:03:24.209Z,28.44
2023-09-19T13:04:30.761Z,28.52
2023-09-19T13:05:51.817Z,28.49
2023-09-19T13:06:54.071Z,28.49
2023-09-19T13:07:55.991Z,28.44
2023-09-19T13:09:13.041Z,28.35
2023-09-19T13:10:17.633Z,28.25
2023-09-19T13:11:19.878Z,28.09
2023-09-19T13:12:38.674Z,28.04
2023-09-19T13:13:51.103Z,28.12
2023-09-19T13:15:12.500Z,28.32
2023-09-19T13:16:23.566Z,28.30
2023-09-19T13:17:25.406Z,28.15
2023-09-19T13:18:28.104Z,28.11
2023-09-19T13:19:49.933Z,28.12
2023-09-19T13:21:23.313Z,28.21
2023-09-19T13:22:44.033Z,28.20
2023-09-19T13:23:46.102Z,28.13
2023-09-19T13:24:52.436Z,28.14
2023-09-19T13:25:54.000Z,28.14
2023-09-19T13:26:56.288Z,28.13
2023-09-19T13:27:58.916Z,28.12
2023-09-19T13:29:00.528Z,28.11
2023-09-19T13:30:02.162Z,28.14
2023-09-19T13:31:03.858Z,28.13
2023-09-19T13:32:05.962Z,28.15
2023-09-19T13:33:12.718Z,28.04
2023-09-19T13:34:16.875Z,28.02
2023-09-19T13:35:19.036Z,28.10
2023-09-19T13:36:20.876Z,28.21
2023-09-19T13:37:23.235Z,28.27
2023-09-19T13:38:24.975Z,28.21
2023-09-19T13:39:26.527Z,28.19
2023-09-19T13:40:31.937Z,28.16
2023-09-19T13:41:33.794Z,28.21
2023-09-19T13:42:37.487Z,28.23
2023-09-19T13:43:39.899Z,28.21
2023-09-19T13:44:44.600Z,28.19
2023-09-19T13:45:46.157Z,28.31
2023-09-19T13:46:48.389Z,28.32
2023-09-19T13:47:50.363Z,28.35
2023-09-19T13:48:55.807Z,28.40
2023-09-19T13:49:58.214Z,28.44
2023-09-19T13:50:59.801Z,28.42
2023-09-19T13:52:04.375Z,28.45
2023-09-19T13:53:06.030Z,28.47
2023-09-19T13:54:07.724Z,28.55
2023-09-19T13:55:09.832Z,28.56
2023-09-19T13:56:12.277Z,28.59
2023-09-19T13:57:14.086Z,28.62
2023-09-19T13:58:16.160Z,28.54
2023-09-19T13:59:17.752Z,28.45
2023-09-19T14:00:19.500Z,28.42
2023-09-19T14:01:21.585Z,28.40
2023-09-19T14:02:26.689Z,28.42